sensor_id;sensor_type;location;lat;lon;timestamp;pressure;altitude;pressure_sealevel;temperature;humidity
28606;BME280;46498;49.968;7.754;2023-03-16T00:02:27;97411.00;;;0.26;99.51
28606;BME280;46498;49.968;7.754;2023-03-16T00:07:29;97415.00;;;0.32;99.30
28606;BME280;46498;49.968;7.754;2023-03-16T00:12:30;97408.00;;;0.29;99.89
28606;BME280;46498;49.968;7.754;2023-03-16T00:17:34;97415.00;;;0.36;100.00
28606;BME280;46498;49.968;7.754;2023-03-16T00:22:35;97408.00;;;0.38;100.00
28606;BME280;46498;49.968;7.754;2023-03-16T00:27:36;97407.00;;;0.41;100.00
28606;BME280;46498;49.968;7.754;2023-03-16T00:32:37;97411.00;;;0.48;100.00
28606;BME280;46498;49.968;7.754;2023-03-16T00:37:38;97409.00;;;0.57;98.79
28606;BME280;46498;49.968;7.754;2023-03-16T00:42:40;97397.00;;;0.55;99.04
28606;BME280;46498;49.968;7.754;2023-03-16T00:47:41;97413.00;;;0.44;100.00
28606;BME280;46498;49.968;7.754;2023-03-16T00:52:42;97406.00;;;0.35;100.00
28606;BME280;46498;49.968;7.754;2023-03-16T00:57:43;97400.00;;;0.29;100.00
28606;BME280;46498;49.968;7.754;2023-03-16T01:02:44;97412.00;;;0.36;100.00
28606;BME280;46498;49.968;7.754;2023-03-16T01:07:45;97423.00;;;0.39;100.00
28606;BME280;46498;49.968;7.754;2023-03-16T01:12:46;97421.00;;;0.30;100.00
28606;BME280;46498;49.968;7.754;2023-03-16T01:17:47;97403.00;;;0.14;100.00
28606;BME280;46498;49.968;7.754;2023-03-16T01:22:48;97397.00;;;0.19;100.00
28606;BME280;46498;49.968;7.754;2023-03-16T01:27:49;97393.00;;;0.16;100.00
28606;BME280;46498;49.968;7.754;2023-03-16T01:32:51;97396.00;;;0.10;100.00
28606;BME280;46498;49.968;7.754;2023-03-16T01:37:53;97388.00;;;-0.04;100.00
28606;BME280;46498;49.968;7.754;2023-03-16T01:43:00;97368.00;;;-0.03;100.00
28606;BME280;46498;49.968;7.754;2023-03-16T01:48:05;97381.00;;;-0.22;100.00
28606;BME280;46498;49.968;7.754;2023-03-16T01:53:08;97377.00;;;-0.23;100.00
28606;BME280;46498;49.968;7.754;2023-03-16T01:58:10;97356.00;;;-0.14;100.00
28606;BME280;46498;49.968;7.754;2023-03-16T02:03:14;97347.00;;;-0.13;100.00
28606;BME280;46498;49.968;7.754;2023-03-16T02:09:01;97340.00;;;0.00;100.00
28606;BME280;46498;49.968;7.754;2023-03-16T02:14:07;97344.00;;;0.07;100.00
28606;BME280;46498;49.968;7.754;2023-03-16T02:19:19;97332.00;;;-0.20;100.00
28606;BME280;46498;49.968;7.754;2023-03-16T02:24:25;97344.00;;;-0.23;100.00
28606;BME280;46498;49.968;7.754;2023-03-16T02:30:05;97328.00;;;-0.10;100.00
28606;BME280;46498;49.968;7.754;2023-03-16T02:35:14;97319.00;;;-0.04;100.00
28606;BME280;46498;49.968;7.754;2023-03-16T02:40:22;97320.00;;;-0.13;100.00
28606;BME280;46498;49.968;7.754;2023-03-16T02:45:26;97312.00;;;-0.10;100.00
28606;BME280;46498;49.968;7.754;2023-03-16T02:50:29;97302.00;;;-0.07;100.00
28606;BME280;46498;49.968;7.754;2023-03-16T02:55:30;97306.00;;;-0.15;100.00
28606;BME280;46498;49.968;7.754;2023-03-16T03:00:31;97302.00;;;-0.12;100.00
28606;BME280;46498;49.968;7.754;2023-03-16T03:05:32;97300.00;;;0.02;100.00
28606;BME280;46498;49.968;7.754;2023-03-16T03:10:33;97304.00;;;-0.05;100.00
28606;BME280;46498;49.968;7.754;2023-03-16T03:15:34;97298.00;;;0.01;100.00
28606;BME280;46498;49.968;7.754;2023-03-16T03:20:40;97294.00;;;-0.09;100.00
28606;BME280;46498;49.968;7.754;2023-03-16T03:25:40;97297.00;;;-0.12;100.00
28606;BME280;46498;49.968;7.754;2023-03-16T03:30:42;97298.00;;;-0.28;100.00
28606;BME280;46498;49.968;7.754;2023-03-16T03:35:43;97291.00;;;-0.32;100.00
28606;BME280;46498;49.968;7.754;2023-03-16T03:40:44;97289.00;;;-0.27;100.00
28606;BME280;46498;49.968;7.754;2023-03-16T03:45:48;97289.00;;;-0.41;100.00
28606;BME280;46498;49.968;7.754;2023-03-16T03:50:49;97289.00;;;-0.50;100.00
28606;BME280;46498;49.968;7.754;2023-03-16T03:56:08;97285.00;;;-0.56;100.00
28606;BME280;46498;49.968;7.754;2023-03-16T04:01:10;97284.00;;;-0.54;100.00
28606;BME280;46498;49.968;7.754;2023-03-16T04:06:11;97273.00;;;-0.64;100.00
28606;BME280;46498;49.968;7.754;2023-03-16T04:11:12;97278.00;;;-0.62;100.00
28606;BME280;46498;49.968;7.754;2023-03-16T04:16:13;97278.00;;;-0.67;100.00
28606;BME280;46498;49.968;7.754;2023-03-16T04:21:17;97275.00;;;-0.66;100.00
28606;BME280;46498;49.968;7.754;2023-03-16T04:26:20;97278.00;;;-0.69;100.00
28606;BME280;46498;49.968;7.754;2023-03-16T04:31:22;97274.00;;;-0.61;100.00
28606;BME280;46498;49.968;7.754;2023-03-16T04:36:23;97269.00;;;-0.57;100.00
28606;BME280;46498;49.968;7.754;2023-03-16T04:41:25;97278.00;;;-0.58;100.00
28606;BME280;46498;49.968;7.754;2023-03-16T04:46:33;97275.00;;;-0.62;100.00
28606;BME280;46498;49.968;7.754;2023-03-16T04:51:37;97277.00;;;-0.52;100.00
28606;BME280;46498;49.968;7.754;2023-03-16T04:56:46;97277.00;;;-0.52;100.00
28606;BME280;46498;49.968;7.754;2023-03-16T05:02:00;97279.00;;;-0.48;100.00
28606;BME280;46498;49.968;7.754;2023-03-16T05:07:01;97275.00;;;-0.52;100.00
28606;BME280;46498;49.968;7.754;2023-03-16T05:12:07;97276.00;;;-0.49;100.00
28606;BME280;46498;49.968;7.754;2023-03-16T05:17:08;97259.00;;;-0.55;100.00
28606;BME280;46498;49.968;7.754;2023-03-16T05:22:10;97254.00;;;-0.72;100.00
28606;BME280;46498;49.968;7.754;2023-03-16T05:27:11;97248.00;;;-0.82;100.00
28606;BME280;46498;49.968;7.754;2023-03-16T05:32:12;97249.00;;;-0.88;100.00
28606;BME280;46498;49.968;7.754;2023-03-16T05:37:14;97247.00;;;-0.83;100.00
28606;BME280;46498;49.968;7.754;2023-03-16T05:42:15;97246.00;;;-0.98;100.00
28606;BME280;46498;49.968;7.754;2023-03-16T05:47:23;97233.00;;;-0.92;100.00
28606;BME280;46498;49.968;7.754;2023-03-16T05:52:27;97238.00;;;-1.03;100.00
28606;BME280;46498;49.968;7.754;2023-03-16T05:57:29;97260.00;;;-0.87;100.00
28606;BME280;46498;49.968;7.754;2023-03-16T06:02:32;97248.00;;;-0.62;100.00
28606;BME280;46498;49.968;7.754;2023-03-16T06:07:34;97247.00;;;-0.59;100.00
28606;BME280;46498;49.968;7.754;2023-03-16T06:12:35;97243.00;;;-0.38;100.00
28606;BME280;46498;49.968;7.754;2023-03-16T06:17:38;97253.00;;;-0.21;100.00
28606;BME280;46498;49.968;7.754;2023-03-16T06:22:41;97262.00;;;-0.21;100.00
28606;BME280;46498;49.968;7.754;2023-03-16T06:27:42;97260.00;;;-0.17;100.00
28606;BME280;46498;49.968;7.754;2023-03-16T06:32:45;97261.00;;;-0.30;100.00
28606;BME280;46498;49.968;7.754;2023-03-16T06:37:47;97258.00;;;-0.16;100.00
28606;BME280;46498;49.968;7.754;2023-03-16T06:43:08;97255.00;;;-0.18;100.00
28606;BME280;46498;49.968;7.754;2023-03-16T06:48:10;97258.00;;;-0.06;100.00
28606;BME280;46498;49.968;7.754;2023-03-16T06:53:11;97246.00;;;-0.27;100.00
28606;BME280;46498;49.968;7.754;2023-03-16T06:58:13;97251.00;;;-0.19;100.00
28606;BME280;46498;49.968;7.754;2023-03-16T07:03:14;97248.00;;;-0.14;100.00
28606;BME280;46498;49.968;7.754;2023-03-16T07:08:19;97251.00;;;0.03;100.00
28606;BME280;46498;49.968;7.754;2023-03-16T07:13:20;97249.00;;;0.03;100.00
28606;BME280;46498;49.968;7.754;2023-03-16T07:18:22;97256.00;;;0.25;100.00
28606;BME280;46498;49.968;7.754;2023-03-16T07:23:25;97252.00;;;0.43;100.00
28606;BME280;46498;49.968;7.754;2023-03-16T07:28:31;97248.00;;;0.42;100.00
28606;BME280;46498;49.968;7.754;2023-03-16T07:33:33;97250.00;;;0.21;100.00
28606;BME280;46498;49.968;7.754;2023-03-16T07:38:37;97263.00;;;0.53;100.00
28606;BME280;46498;49.968;7.754;2023-03-16T07:43:38;97271.00;;;0.75;100.00
28606;BME280;46498;49.968;7.754;2023-03-16T07:48:43;97260.00;;;0.77;100.00
28606;BME280;46498;49.968;7.754;2023-03-16T07:53:45;97261.00;;;1.00;100.00
28606;BME280;46498;49.968;7.754;2023-03-16T07:58:50;97266.00;;;1.20;100.00
28606;BME280;46498;49.968;7.754;2023-03-16T08:03:51;97271.00;;;1.45;100.00
28606;BME280;46498;49.968;7.754;2023-03-16T08:08:53;97262.00;;;1.48;100.00
28606;BME280;46498;49.968;7.754;2023-03-16T08:14:03;97254.00;;;1.43;100.00
28606;BME280;46498;49.968;7.754;2023-03-16T08:19:21;97244.00;;;1.35;100.00
28606;BME280;46498;49.968;7.754;2023-03-16T08:24:23;97257.00;;;1.11;100.00
28606;BME280;46498;49.968;7.754;2023-03-16T08:29:25;97255.00;;;1.09;100.00
28606;BME280;46498;49.968;7.754;2023-03-16T08:34:26;97271.00;;;0.93;100.00
28606;BME280;46498;49.968;7.754;2023-03-16T08:39:29;97280.00;;;0.91;100.00
28606;BME280;46498;49.968;7.754;2023-03-16T08:44:30;97272.00;;;1.34;100.00
28606;BME280;46498;49.968;7.754;2023-03-16T08:49:33;97258.00;;;1.56;100.00
28606;BME280;46498;49.968;7.754;2023-03-16T08:54:41;97245.00;;;1.63;100.00
28606;BME280;46498;49.968;7.754;2023-03-16T09:00:02;97234.00;;;1.60;100.00
28606;BME280;46498;49.968;7.754;2023-03-16T09:05:13;97231.00;;;1.80;100.00
28606;BME280;46498;49.968;7.754;2023-03-16T09:10:22;97242.00;;;1.68;100.00
28606;BME280;46498;49.968;7.754;2023-03-16T09:15:23;97236.00;;;1.66;100.00
28606;BME280;46498;49.968;7.754;2023-03-16T09:20:23;97250.00;;;1.68;100.00
28606;BME280;46498;49.968;7.754;2023-03-16T09:25:30;97252.00;;;2.37;100.00
28606;BME280;46498;49.968;7.754;2023-03-16T09:30:32;97243.00;;;2.73;100.00
28606;BME280;46498;49.968;7.754;2023-03-16T09:35:34;97225.00;;;2.68;100.00
28606;BME280;46498;49.968;7.754;2023-03-16T09:40:37;97223.00;;;2.40;100.00
28606;BME280;46498;49.968;7.754;2023-03-16T10:09:42;97232.00;;;3.98;100.00
28606;BME280;46498;49.968;7.754;2023-03-16T10:15:31;97241.00;;;3.30;100.00
28606;BME280;46498;49.968;7.754;2023-03-16T10:20:35;97251.00;;;3.66;100.00
28606;BME280;46498;49.968;7.754;2023-03-16T10:25:50;97235.00;;;3.73;100.00
28606;BME280;46498;49.968;7.754;2023-03-16T10:30:53;97230.00;;;3.85;100.00
28606;BME280;46498;49.968;7.754;2023-03-16T10:36:40;97232.00;;;3.96;100.00
28606;BME280;46498;49.968;7.754;2023-03-16T10:41:53;97226.00;;;3.69;100.00
28606;BME280;46498;49.968;7.754;2023-03-16T10:47:05;97220.00;;;3.56;100.00
28606;BME280;46498;49.968;7.754;2023-03-16T10:52:12;97225.00;;;3.78;100.00
28606;BME280;46498;49.968;7.754;2023-03-16T10:57:32;97212.00;;;3.84;100.00
28606;BME280;46498;49.968;7.754;2023-03-16T11:02:33;97217.00;;;3.92;100.00
28606;BME280;46498;49.968;7.754;2023-03-16T11:07:35;97222.00;;;3.68;100.00
28606;BME280;46498;49.968;7.754;2023-03-16T11:12:37;97223.00;;;4.01;100.00
28606;BME280;46498;49.968;7.754;2023-03-16T11:17:43;97215.00;;;4.23;100.00
28606;BME280;46498;49.968;7.754;2023-03-16T11:22:46;97208.00;;;4.81;96.42
28606;BME280;46498;49.968;7.754;2023-03-16T11:27:52;97202.00;;;4.62;98.45
28606;BME280;46498;49.968;7.754;2023-03-16T11:32:57;97191.00;;;5.03;100.00
28606;BME280;46498;49.968;7.754;2023-03-16T11:38:14;97179.00;;;5.01;96.56
28606;BME280;46498;49.968;7.754;2023-03-16T11:43:41;97180.00;;;5.60;99.24
28606;BME280;46498;49.968;7.754;2023-03-16T11:56:51;97165.00;;;4.88;98.99
28606;BME280;46498;49.968;7.754;2023-03-16T12:03:51;97166.00;;;6.01;98.86
28606;BME280;46498;49.968;7.754;2023-03-16T12:09:47;97158.00;;;6.10;92.86
28606;BME280;46498;49.968;7.754;2023-03-16T12:15:42;97148.00;;;6.95;90.83
28606;BME280;46498;49.968;7.754;2023-03-16T12:21:37;97144.00;;;6.68;89.73
28606;BME280;46498;49.968;7.754;2023-03-16T12:26:41;97133.00;;;6.51;88.00
28606;BME280;46498;49.968;7.754;2023-03-16T12:40:32;97117.00;;;6.46;91.63
28606;BME280;46498;49.968;7.754;2023-03-16T12:45:42;97113.00;;;7.32;85.88
28606;BME280;46498;49.968;7.754;2023-03-16T12:50:51;97106.00;;;7.10;84.64
28606;BME280;46498;49.968;7.754;2023-03-16T12:55:54;97091.00;;;6.89;86.83
28606;BME280;46498;49.968;7.754;2023-03-16T13:00:58;97100.00;;;7.10;83.54
28606;BME280;46498;49.968;7.754;2023-03-16T13:06:00;97101.00;;;7.11;82.57
28606;BME280;46498;49.968;7.754;2023-03-16T13:11:06;97081.00;;;7.01;78.93
28606;BME280;46498;49.968;7.754;2023-03-16T13:16:26;97076.00;;;7.01;79.69
28606;BME280;46498;49.968;7.754;2023-03-16T13:21:39;97083.00;;;7.04;78.78
28606;BME280;46498;49.968;7.754;2023-03-16T13:26:57;97071.00;;;7.45;79.63
28606;BME280;46498;49.968;7.754;2023-03-16T13:32:06;97065.00;;;7.73;79.07
28606;BME280;46498;49.968;7.754;2023-03-16T13:37:13;97058.00;;;7.56;76.39
28606;BME280;46498;49.968;7.754;2023-03-16T13:42:18;97064.00;;;7.56;76.61
28606;BME280;46498;49.968;7.754;2023-03-16T13:47:20;97075.00;;;7.63;70.04
28606;BME280;46498;49.968;7.754;2023-03-16T13:52:29;97055.00;;;7.70;72.54
28606;BME280;46498;49.968;7.754;2023-03-16T13:57:39;97052.00;;;7.47;70.24
28606;BME280;46498;49.968;7.754;2023-03-16T14:02:42;97046.00;;;7.50;70.37
28606;BME280;46498;49.968;7.754;2023-03-16T14:07:46;97026.00;;;7.51;71.44
28606;BME280;46498;49.968;7.754;2023-03-16T14:13:06;97038.00;;;7.33;71.07
28606;BME280;46498;49.968;7.754;2023-03-16T14:18:16;97031.00;;;7.27;74.30
28606;BME280;46498;49.968;7.754;2023-03-16T14:23:31;97015.00;;;7.42;71.14
28606;BME280;46498;49.968;7.754;2023-03-16T14:28:33;97012.00;;;7.59;71.73
28606;BME280;46498;49.968;7.754;2023-03-16T14:33:36;96996.00;;;7.53;72.44
28606;BME280;46498;49.968;7.754;2023-03-16T14:38:41;97014.00;;;7.47;70.99
28606;BME280;46498;49.968;7.754;2023-03-16T14:43:53;97000.00;;;7.48;72.20
28606;BME280;46498;49.968;7.754;2023-03-16T14:49:05;97000.00;;;7.81;70.38
28606;BME280;46498;49.968;7.754;2023-03-16T14:54:11;97001.00;;;7.86;68.50
28606;BME280;46498;49.968;7.754;2023-03-16T14:59:13;96998.00;;;7.66;71.39
28606;BME280;46498;49.968;7.754;2023-03-16T15:04:15;96994.00;;;7.81;68.69
28606;BME280;46498;49.968;7.754;2023-03-16T15:09:36;96984.00;;;7.68;69.62
28606;BME280;46498;49.968;7.754;2023-03-16T15:14:38;96973.00;;;7.77;66.36
28606;BME280;46498;49.968;7.754;2023-03-16T15:19:58;96969.00;;;7.82;66.89
28606;BME280;46498;49.968;7.754;2023-03-16T15:25:24;96963.00;;;8.00;66.37
28606;BME280;46498;49.968;7.754;2023-03-16T15:30:28;96957.00;;;7.92;65.47
28606;BME280;46498;49.968;7.754;2023-03-16T15:35:30;96961.00;;;7.84;68.08
28606;BME280;46498;49.968;7.754;2023-03-16T15:40:31;96958.00;;;7.58;65.51
28606;BME280;46498;49.968;7.754;2023-03-16T15:45:34;96963.00;;;7.54;67.10
28606;BME280;46498;49.968;7.754;2023-03-16T15:50:38;96945.00;;;7.48;68.56
28606;BME280;46498;49.968;7.754;2023-03-16T15:55:42;96952.00;;;7.37;68.99
28606;BME280;46498;49.968;7.754;2023-03-16T16:00:45;96951.00;;;7.24;70.28
28606;BME280;46498;49.968;7.754;2023-03-16T16:05:47;96951.00;;;7.26;73.89
28606;BME280;46498;49.968;7.754;2023-03-16T16:10:48;96942.00;;;7.23;73.10
28606;BME280;46498;49.968;7.754;2023-03-16T16:15:50;96935.00;;;7.16;73.53
28606;BME280;46498;49.968;7.754;2023-03-16T16:20:52;96928.00;;;7.16;73.38
28606;BME280;46498;49.968;7.754;2023-03-16T16:25:55;96928.00;;;7.18;74.53
28606;BME280;46498;49.968;7.754;2023-03-16T16:30:59;96931.00;;;7.13;74.26
28606;BME280;46498;49.968;7.754;2023-03-16T16:36:02;96924.00;;;7.08;75.60
28606;BME280;46498;49.968;7.754;2023-03-16T16:41:07;96929.00;;;7.04;75.87
28606;BME280;46498;49.968;7.754;2023-03-16T16:46:14;96925.00;;;7.03;75.20
28606;BME280;46498;49.968;7.754;2023-03-16T16:51:21;96924.00;;;6.98;76.23
28606;BME280;46498;49.968;7.754;2023-03-16T16:56:30;96934.00;;;6.97;76.54
28606;BME280;46498;49.968;7.754;2023-03-16T17:01:32;96924.00;;;6.91;76.82
28606;BME280;46498;49.968;7.754;2023-03-16T17:06:34;96924.00;;;6.87;76.33
28606;BME280;46498;49.968;7.754;2023-03-16T17:11:36;96915.00;;;6.89;76.04
28606;BME280;46498;49.968;7.754;2023-03-16T17:16:37;96920.00;;;6.87;75.43
28606;BME280;46498;49.968;7.754;2023-03-16T17:21:42;96921.00;;;6.82;76.81
28606;BME280;46498;49.968;7.754;2023-03-16T17:26:46;96916.00;;;6.72;77.02
28606;BME280;46498;49.968;7.754;2023-03-16T17:31:49;96922.00;;;6.69;77.40
28606;BME280;46498;49.968;7.754;2023-03-16T17:36:50;96926.00;;;6.66;77.67
28606;BME280;46498;49.968;7.754;2023-03-16T17:41:57;96919.00;;;6.67;77.88
28606;BME280;46498;49.968;7.754;2023-03-16T17:46:58;96915.00;;;6.64;78.63
28606;BME280;46498;49.968;7.754;2023-03-16T17:52:00;96911.00;;;6.56;79.34
28606;BME280;46498;49.968;7.754;2023-03-16T17:57:01;96908.00;;;6.50;79.80
28606;BME280;46498;49.968;7.754;2023-03-16T18:02:02;96909.00;;;6.50;80.08
28606;BME280;46498;49.968;7.754;2023-03-16T18:07:03;96902.00;;;6.48;80.15
28606;BME280;46498;49.968;7.754;2023-03-16T18:12:05;96900.00;;;6.37;81.42
28606;BME280;46498;49.968;7.754;2023-03-16T18:22:33;96894.00;;;6.33;82.00
28606;BME280;46498;49.968;7.754;2023-03-16T18:27:34;96888.00;;;6.30;82.19
28606;BME280;46498;49.968;7.754;2023-03-16T18:32:35;96889.00;;;6.23;82.42
28606;BME280;46498;49.968;7.754;2023-03-16T18:37:36;96902.00;;;6.18;83.03
28606;BME280;46498;49.968;7.754;2023-03-16T18:42:38;96890.00;;;6.13;83.11
28606;BME280;46498;49.968;7.754;2023-03-16T18:47:39;96893.00;;;6.05;83.33
28606;BME280;46498;49.968;7.754;2023-03-16T18:52:43;96886.00;;;6.12;82.49
28606;BME280;46498;49.968;7.754;2023-03-16T18:57:45;96889.00;;;6.08;81.96
28606;BME280;46498;49.968;7.754;2023-03-16T19:02:54;96893.00;;;6.03;82.11
28606;BME280;46498;49.968;7.754;2023-03-16T19:07:55;96897.00;;;6.04;81.79
28606;BME280;46498;49.968;7.754;2023-03-16T19:12:57;96898.00;;;6.03;81.34
28606;BME280;46498;49.968;7.754;2023-03-16T19:17:58;96900.00;;;5.96;81.19
28606;BME280;46498;49.968;7.754;2023-03-16T19:23:07;96892.00;;;5.91;81.82
28606;BME280;46498;49.968;7.754;2023-03-16T19:28:14;96897.00;;;5.94;81.02
28606;BME280;46498;49.968;7.754;2023-03-16T19:33:21;96885.00;;;5.81;81.37
28606;BME280;46498;49.968;7.754;2023-03-16T19:38:23;96883.00;;;5.67;82.41
28606;BME280;46498;49.968;7.754;2023-03-16T19:43:25;96883.00;;;5.61;82.91
28606;BME280;46498;49.968;7.754;2023-03-16T19:48:31;96876.00;;;5.56;82.99
28606;BME280;46498;49.968;7.754;2023-03-16T19:53:32;96868.00;;;5.55;82.99
28606;BME280;46498;49.968;7.754;2023-03-16T19:58:36;96877.00;;;5.44;83.09
28606;BME280;46498;49.968;7.754;2023-03-16T20:03:42;96870.00;;;5.38;82.93
28606;BME280;46498;49.968;7.754;2023-03-16T20:08:45;96858.00;;;5.34;83.15
28606;BME280;46498;49.968;7.754;2023-03-16T20:13:46;96860.00;;;5.29;83.10
28606;BME280;46498;49.968;7.754;2023-03-16T20:18:52;96860.00;;;5.34;83.12
28606;BME280;46498;49.968;7.754;2023-03-16T20:23:55;96854.00;;;5.26;83.84
28606;BME280;46498;49.968;7.754;2023-03-16T20:28:57;96847.00;;;5.16;85.00
28606;BME280;46498;49.968;7.754;2023-03-16T20:33:58;96850.00;;;5.11;85.59
28606;BME280;46498;49.968;7.754;2023-03-16T20:38:59;96835.00;;;5.09;85.62
28606;BME280;46498;49.968;7.754;2023-03-16T20:44:01;96842.00;;;5.03;86.15
28606;BME280;46498;49.968;7.754;2023-03-16T20:49:04;96844.00;;;5.02;86.66
28606;BME280;46498;49.968;7.754;2023-03-16T20:54:05;96834.00;;;5.07;86.58
28606;BME280;46498;49.968;7.754;2023-03-16T20:59:19;96833.00;;;5.11;86.10
28606;BME280;46498;49.968;7.754;2023-03-16T21:04:26;96841.00;;;5.01;88.12
28606;BME280;46498;49.968;7.754;2023-03-16T21:09:28;96837.00;;;4.98;88.13
28606;BME280;46498;49.968;7.754;2023-03-16T21:14:31;96825.00;;;4.82;90.02
28606;BME280;46498;49.968;7.754;2023-03-16T21:19:33;96823.00;;;4.87;89.92
28606;BME280;46498;49.968;7.754;2023-03-16T21:24:34;96819.00;;;4.91;89.88
28606;BME280;46498;49.968;7.754;2023-03-16T21:29:36;96822.00;;;4.91;89.99
28606;BME280;46498;49.968;7.754;2023-03-16T21:34:37;96818.00;;;4.89;89.22
28606;BME280;46498;49.968;7.754;2023-03-16T21:39:38;96807.00;;;5.08;94.68
28606;BME280;46498;49.968;7.754;2023-03-16T21:44:39;96799.00;;;4.96;90.26
28606;BME280;46498;49.968;7.754;2023-03-16T21:49:40;96801.00;;;4.70;91.27
28606;BME280;46498;49.968;7.754;2023-03-16T21:54:41;96796.00;;;4.70;91.51
28606;BME280;46498;49.968;7.754;2023-03-16T21:59:42;96800.00;;;4.46;92.47
28606;BME280;46498;49.968;7.754;2023-03-16T22:04:43;96780.00;;;4.36;94.09
28606;BME280;46498;49.968;7.754;2023-03-16T22:09:44;96784.00;;;4.26;94.60
28606;BME280;46498;49.968;7.754;2023-03-16T22:14:45;96778.00;;;4.24;95.45
28606;BME280;46498;49.968;7.754;2023-03-16T22:19:47;96778.00;;;4.24;95.71
28606;BME280;46498;49.968;7.754;2023-03-16T22:24:48;96784.00;;;4.19;96.41
28606;BME280;46498;49.968;7.754;2023-03-16T22:29:48;96772.00;;;4.27;96.21
28606;BME280;46498;49.968;7.754;2023-03-16T22:34:52;96767.00;;;4.24;97.41
28606;BME280;46498;49.968;7.754;2023-03-16T22:39:56;96775.00;;;4.23;96.29
28606;BME280;46498;49.968;7.754;2023-03-16T22:44:58;96766.00;;;4.13;97.21
28606;BME280;46498;49.968;7.754;2023-03-16T22:50:00;96763.00;;;4.09;97.96
28606;BME280;46498;49.968;7.754;2023-03-16T22:55:02;96755.00;;;4.11;98.86
28606;BME280;46498;49.968;7.754;2023-03-16T23:00:05;96758.00;;;4.11;98.25
28606;BME280;46498;49.968;7.754;2023-03-16T23:05:24;96754.00;;;4.14;97.99
28606;BME280;46498;49.968;7.754;2023-03-16T23:10:26;96748.00;;;3.97;98.93
28606;BME280;46498;49.968;7.754;2023-03-16T23:15:36;96740.00;;;3.99;99.62
28606;BME280;46498;49.968;7.754;2023-03-16T23:20:37;96725.00;;;4.00;100.00
28606;BME280;46498;49.968;7.754;2023-03-16T23:25:39;96717.00;;;3.97;100.00
28606;BME280;46498;49.968;7.754;2023-03-16T23:30:40;96715.00;;;4.01;100.00
28606;BME280;46498;49.968;7.754;2023-03-16T23:35:41;96725.00;;;3.79;100.00
28606;BME280;46498;49.968;7.754;2023-03-16T23:40:46;96728.00;;;3.75;100.00
28606;BME280;46498;49.968;7.754;2023-03-16T23:45:46;96719.00;;;3.74;100.00
28606;BME280;46498;49.968;7.754;2023-03-16T23:50:50;96724.00;;;3.72;100.00
28606;BME280;46498;49.968;7.754;2023-03-16T23:55:51;96719.00;;;3.72;100.00
